sensor_id;sensor_type;location;lat;lon;timestamp;temperature;humidity
40996;DHT22;26723;57.478;12.066;2022-10-18T00:00:26;12.30;99.90
40996;DHT22;26723;57.478;12.066;2022-10-18T00:03:35;12.30;99.90
40996;DHT22;26723;57.478;12.066;2022-10-18T00:06:45;12.30;99.90
40996;DHT22;26723;57.478;12.066;2022-10-18T00:09:54;12.30;99.90
40996;DHT22;26723;57.478;12.066;2022-10-18T00:13:02;12.40;99.90
40996;DHT22;26723;57.478;12.066;2022-10-18T00:16:12;12.40;99.90
40996;DHT22;26723;57.478;12.066;2022-10-18T00:19:21;12.50;99.90
40996;DHT22;26723;57.478;12.066;2022-10-18T00:22:37;12.40;99.90
40996;DHT22;26723;57.478;12.066;2022-10-18T00:25:46;12.50;99.90
40996;DHT22;26723;57.478;12.066;2022-10-18T00:28:56;12.50;99.90
40996;DHT22;26723;57.478;12.066;2022-10-18T00:32:05;12.40;99.90
40996;DHT22;26723;57.478;12.066;2022-10-18T00:35:14;12.40;99.90
40996;DHT22;26723;57.478;12.066;2022-10-18T00:38:23;12.40;99.90
40996;DHT22;26723;57.478;12.066;2022-10-18T00:41:34;12.40;99.90
40996;DHT22;26723;57.478;12.066;2022-10-18T00:45:04;12.30;99.90
40996;DHT22;26723;57.478;12.066;2022-10-18T00:48:14;12.30;99.90
40996;DHT22;26723;57.478;12.066;2022-10-18T00:51:26;12.30;99.90
40996;DHT22;26723;57.478;12.066;2022-10-18T00:54:39;12.20;99.90
40996;DHT22;26723;57.478;12.066;2022-10-18T00:57:49;12.20;99.90
40996;DHT22;26723;57.478;12.066;2022-10-18T01:00:58;12.20;99.90
40996;DHT22;26723;57.478;12.066;2022-10-18T01:04:06;12.20;99.90
40996;DHT22;26723;57.478;12.066;2022-10-18T01:07:27;12.10;99.90
40996;DHT22;26723;57.478;12.066;2022-10-18T01:10:42;12.00;99.90
40996;DHT22;26723;57.478;12.066;2022-10-18T01:14:04;12.00;99.90
40996;DHT22;26723;57.478;12.066;2022-10-18T01:17:17;12.00;99.90
40996;DHT22;26723;57.478;12.066;2022-10-18T01:20:49;12.00;99.90
40996;DHT22;26723;57.478;12.066;2022-10-18T01:27:57;11.90;99.90
40996;DHT22;26723;57.478;12.066;2022-10-18T01:31:12;11.90;99.90
40996;DHT22;26723;57.478;12.066;2022-10-18T01:34:23;11.90;99.90
40996;DHT22;26723;57.478;12.066;2022-10-18T01:37:34;11.90;99.90
40996;DHT22;26723;57.478;12.066;2022-10-18T01:40:46;11.90;99.90
40996;DHT22;26723;57.478;12.066;2022-10-18T01:43:58;11.90;99.90
40996;DHT22;26723;57.478;12.066;2022-10-18T01:47:10;11.90;99.90
40996;DHT22;26723;57.478;12.066;2022-10-18T01:50:28;11.90;99.90
40996;DHT22;26723;57.478;12.066;2022-10-18T01:53:37;11.90;99.90
40996;DHT22;26723;57.478;12.066;2022-10-18T01:56:50;12.00;99.90
40996;DHT22;26723;57.478;12.066;2022-10-18T02:00:03;12.00;99.90
40996;DHT22;26723;57.478;12.066;2022-10-18T02:03:23;12.00;99.90
40996;DHT22;26723;57.478;12.066;2022-10-18T02:06:37;12.00;99.90
40996;DHT22;26723;57.478;12.066;2022-10-18T02:09:51;12.00;99.90
40996;DHT22;26723;57.478;12.066;2022-10-18T02:13:02;12.00;99.90
40996;DHT22;26723;57.478;12.066;2022-10-18T02:16:15;12.00;99.90
40996;DHT22;26723;57.478;12.066;2022-10-18T02:19:27;12.00;99.90
40996;DHT22;26723;57.478;12.066;2022-10-18T02:22:41;12.10;99.90
40996;DHT22;26723;57.478;12.066;2022-10-18T02:25:52;12.10;99.90
40996;DHT22;26723;57.478;12.066;2022-10-18T02:29:01;12.10;99.90
40996;DHT22;26723;57.478;12.066;2022-10-18T02:32:13;12.10;99.90
40996;DHT22;26723;57.478;12.066;2022-10-18T02:35:28;12.20;99.90
40996;DHT22;26723;57.478;12.066;2022-10-18T02:38:39;12.20;99.90
40996;DHT22;26723;57.478;12.066;2022-10-18T02:41:48;12.30;99.90
40996;DHT22;26723;57.478;12.066;2022-10-18T02:44:57;12.30;99.90
40996;DHT22;26723;57.478;12.066;2022-10-18T02:48:05;12.40;99.90
40996;DHT22;26723;57.478;12.066;2022-10-18T02:51:16;12.40;99.90
40996;DHT22;26723;57.478;12.066;2022-10-18T02:54:24;12.50;99.90
40996;DHT22;26723;57.478;12.066;2022-10-18T02:57:33;12.50;99.90
40996;DHT22;26723;57.478;12.066;2022-10-18T03:00:42;12.50;99.90
40996;DHT22;26723;57.478;12.066;2022-10-18T03:03:50;12.50;99.90
40996;DHT22;26723;57.478;12.066;2022-10-18T03:07:00;12.60;99.90
40996;DHT22;26723;57.478;12.066;2022-10-18T03:10:09;12.60;99.90
40996;DHT22;26723;57.478;12.066;2022-10-18T03:13:17;12.60;99.90
40996;DHT22;26723;57.478;12.066;2022-10-18T03:16:26;12.60;99.90
40996;DHT22;26723;57.478;12.066;2022-10-18T03:19:34;12.60;99.90
40996;DHT22;26723;57.478;12.066;2022-10-18T03:22:46;12.60;99.90
40996;DHT22;26723;57.478;12.066;2022-10-18T03:25:54;12.70;99.90
40996;DHT22;26723;57.478;12.066;2022-10-18T03:29:03;12.70;99.90
40996;DHT22;26723;57.478;12.066;2022-10-18T03:32:12;12.70;99.90
40996;DHT22;26723;57.478;12.066;2022-10-18T03:35:20;12.70;99.90
40996;DHT22;26723;57.478;12.066;2022-10-18T03:38:30;12.70;99.90
40996;DHT22;26723;57.478;12.066;2022-10-18T03:41:39;12.70;99.90
40996;DHT22;26723;57.478;12.066;2022-10-18T03:44:47;12.70;99.90
40996;DHT22;26723;57.478;12.066;2022-10-18T03:47:56;12.70;99.90
40996;DHT22;26723;57.478;12.066;2022-10-18T03:51:04;12.70;99.90
40996;DHT22;26723;57.478;12.066;2022-10-18T03:54:14;12.70;99.90
40996;DHT22;26723;57.478;12.066;2022-10-18T03:57:23;12.70;99.90
40996;DHT22;26723;57.478;12.066;2022-10-18T04:00:31;12.70;99.90
40996;DHT22;26723;57.478;12.066;2022-10-18T04:03:40;12.70;99.90
40996;DHT22;26723;57.478;12.066;2022-10-18T04:06:48;12.70;99.90
40996;DHT22;26723;57.478;12.066;2022-10-18T04:09:58;12.70;99.90
40996;DHT22;26723;57.478;12.066;2022-10-18T04:13:07;12.70;99.90
40996;DHT22;26723;57.478;12.066;2022-10-18T04:16:15;12.70;99.90
40996;DHT22;26723;57.478;12.066;2022-10-18T04:19:24;12.70;99.90
40996;DHT22;26723;57.478;12.066;2022-10-18T04:22:33;12.70;99.90
40996;DHT22;26723;57.478;12.066;2022-10-18T04:25:43;12.70;99.90
40996;DHT22;26723;57.478;12.066;2022-10-18T04:28:52;12.70;99.90
40996;DHT22;26723;57.478;12.066;2022-10-18T04:32:00;12.70;99.90
40996;DHT22;26723;57.478;12.066;2022-10-18T04:35:09;12.70;99.90
40996;DHT22;26723;57.478;12.066;2022-10-18T04:38:18;12.70;99.90
40996;DHT22;26723;57.478;12.066;2022-10-18T04:41:28;12.70;99.90
40996;DHT22;26723;57.478;12.066;2022-10-18T04:44:37;12.70;99.90
40996;DHT22;26723;57.478;12.066;2022-10-18T04:47:45;12.70;99.90
40996;DHT22;26723;57.478;12.066;2022-10-18T04:50:54;12.70;99.90
40996;DHT22;26723;57.478;12.066;2022-10-18T04:54:02;12.70;99.90
40996;DHT22;26723;57.478;12.066;2022-10-18T04:57:12;12.70;99.90
40996;DHT22;26723;57.478;12.066;2022-10-18T05:00:21;12.70;99.90
40996;DHT22;26723;57.478;12.066;2022-10-18T05:03:29;12.70;99.90
40996;DHT22;26723;57.478;12.066;2022-10-18T05:06:37;12.70;99.90
40996;DHT22;26723;57.478;12.066;2022-10-18T05:09:46;12.60;99.90
40996;DHT22;26723;57.478;12.066;2022-10-18T05:12:56;12.60;99.90
40996;DHT22;26723;57.478;12.066;2022-10-18T05:16:05;12.60;99.90
40996;DHT22;26723;57.478;12.066;2022-10-18T05:19:14;12.60;99.90
40996;DHT22;26723;57.478;12.066;2022-10-18T05:22:22;12.60;99.90
40996;DHT22;26723;57.478;12.066;2022-10-18T05:25:31;12.60;99.90
40996;DHT22;26723;57.478;12.066;2022-10-18T05:28:40;12.50;99.90
40996;DHT22;26723;57.478;12.066;2022-10-18T05:31:49;12.50;99.90
40996;DHT22;26723;57.478;12.066;2022-10-18T05:34:58;12.50;99.90
40996;DHT22;26723;57.478;12.066;2022-10-18T05:38:06;12.50;99.90
40996;DHT22;26723;57.478;12.066;2022-10-18T05:41:15;12.50;99.90
40996;DHT22;26723;57.478;12.066;2022-10-18T05:44:25;12.40;99.90
40996;DHT22;26723;57.478;12.066;2022-10-18T05:47:33;12.40;99.90
40996;DHT22;26723;57.478;12.066;2022-10-18T05:50:46;12.30;99.90
40996;DHT22;26723;57.478;12.066;2022-10-18T05:53:55;12.30;99.90
40996;DHT22;26723;57.478;12.066;2022-10-18T05:57:04;12.40;99.90
40996;DHT22;26723;57.478;12.066;2022-10-18T06:00:14;12.40;99.90
40996;DHT22;26723;57.478;12.066;2022-10-18T06:03:23;12.50;99.90
40996;DHT22;26723;57.478;12.066;2022-10-18T06:06:32;12.50;99.90
40996;DHT22;26723;57.478;12.066;2022-10-18T06:09:40;12.50;99.90
40996;DHT22;26723;57.478;12.066;2022-10-18T06:12:49;12.50;99.90
40996;DHT22;26723;57.478;12.066;2022-10-18T06:15:59;12.60;99.90
40996;DHT22;26723;57.478;12.066;2022-10-18T06:19:07;12.60;99.90
40996;DHT22;26723;57.478;12.066;2022-10-18T06:22:16;12.60;99.90
40996;DHT22;26723;57.478;12.066;2022-10-18T06:25:24;12.60;99.90
40996;DHT22;26723;57.478;12.066;2022-10-18T06:28:33;12.60;99.90
40996;DHT22;26723;57.478;12.066;2022-10-18T06:31:44;12.60;99.90
40996;DHT22;26723;57.478;12.066;2022-10-18T06:34:52;12.60;99.90
40996;DHT22;26723;57.478;12.066;2022-10-18T06:38:01;12.70;99.90
40996;DHT22;26723;57.478;12.066;2022-10-18T06:41:09;12.70;99.90
40996;DHT22;26723;57.478;12.066;2022-10-18T06:44:18;12.70;99.90
40996;DHT22;26723;57.478;12.066;2022-10-18T06:47:28;12.70;99.90
40996;DHT22;26723;57.478;12.066;2022-10-18T06:50:36;12.70;99.90
40996;DHT22;26723;57.478;12.066;2022-10-18T06:53:45;12.70;99.90
40996;DHT22;26723;57.478;12.066;2022-10-18T06:57:13;12.70;99.90
40996;DHT22;26723;57.478;12.066;2022-10-18T07:00:22;12.80;99.90
40996;DHT22;26723;57.478;12.066;2022-10-18T07:03:32;12.80;99.90
40996;DHT22;26723;57.478;12.066;2022-10-18T07:06:41;12.70;99.90
40996;DHT22;26723;57.478;12.066;2022-10-18T07:09:49;12.80;99.90
40996;DHT22;26723;57.478;12.066;2022-10-18T07:12:58;12.80;99.90
40996;DHT22;26723;57.478;12.066;2022-10-18T07:16:26;12.80;99.90
40996;DHT22;26723;57.478;12.066;2022-10-18T07:19:36;12.80;99.90
40996;DHT22;26723;57.478;12.066;2022-10-18T07:22:44;12.80;99.90
40996;DHT22;26723;57.478;12.066;2022-10-18T07:25:53;12.80;99.90
40996;DHT22;26723;57.478;12.066;2022-10-18T07:29:05;12.90;99.90
40996;DHT22;26723;57.478;12.066;2022-10-18T07:32:14;12.90;99.90
40996;DHT22;26723;57.478;12.066;2022-10-18T07:35:24;12.90;99.90
40996;DHT22;26723;57.478;12.066;2022-10-18T07:38:32;12.90;99.90
40996;DHT22;26723;57.478;12.066;2022-10-18T07:41:41;12.90;99.90
40996;DHT22;26723;57.478;12.066;2022-10-18T07:44:49;12.90;99.90
40996;DHT22;26723;57.478;12.066;2022-10-18T07:47:58;12.90;99.90
40996;DHT22;26723;57.478;12.066;2022-10-18T07:51:08;13.00;99.90
40996;DHT22;26723;57.478;12.066;2022-10-18T07:54:17;12.90;99.90
40996;DHT22;26723;57.478;12.066;2022-10-18T07:57:25;12.90;99.90
40996;DHT22;26723;57.478;12.066;2022-10-18T08:00:34;12.90;99.90
40996;DHT22;26723;57.478;12.066;2022-10-18T08:03:42;13.00;99.90
40996;DHT22;26723;57.478;12.066;2022-10-18T08:06:52;13.10;99.90
40996;DHT22;26723;57.478;12.066;2022-10-18T08:10:00;13.10;99.90
40996;DHT22;26723;57.478;12.066;2022-10-18T08:13:09;13.10;99.90
40996;DHT22;26723;57.478;12.066;2022-10-18T08:16:20;13.20;99.90
40996;DHT22;26723;57.478;12.066;2022-10-18T08:19:29;13.20;99.90
40996;DHT22;26723;57.478;12.066;2022-10-18T08:22:39;13.20;99.90
40996;DHT22;26723;57.478;12.066;2022-10-18T08:25:47;13.20;99.90
40996;DHT22;26723;57.478;12.066;2022-10-18T08:28:55;13.20;99.90
40996;DHT22;26723;57.478;12.066;2022-10-18T08:32:24;13.50;99.90
40996;DHT22;26723;57.478;12.066;2022-10-18T08:35:34;14.10;99.90
40996;DHT22;26723;57.478;12.066;2022-10-18T08:38:44;14.10;99.90
40996;DHT22;26723;57.478;12.066;2022-10-18T08:42:20;17.10;99.90
40996;DHT22;26723;57.478;12.066;2022-10-18T08:45:34;17.90;99.90
40996;DHT22;26723;57.478;12.066;2022-10-18T08:48:50;18.80;99.90
40996;DHT22;26723;57.478;12.066;2022-10-18T08:51:59;17.00;99.90
40996;DHT22;26723;57.478;12.066;2022-10-18T08:55:12;15.90;99.90
40996;DHT22;26723;57.478;12.066;2022-10-18T08:58:26;18.90;99.90
40996;DHT22;26723;57.478;12.066;2022-10-18T09:01:44;20.20;99.90
40996;DHT22;26723;57.478;12.066;2022-10-18T09:05:00;17.80;99.90
40996;DHT22;26723;57.478;12.066;2022-10-18T09:12:06;15.50;99.90
40996;DHT22;26723;57.478;12.066;2022-10-18T09:15:28;14.90;99.90
40996;DHT22;26723;57.478;12.066;2022-10-18T09:18:49;14.30;99.90
40996;DHT22;26723;57.478;12.066;2022-10-18T09:22:03;14.00;99.90
40996;DHT22;26723;57.478;12.066;2022-10-18T09:25:18;13.90;99.90
40996;DHT22;26723;57.478;12.066;2022-10-18T09:28:34;13.80;99.90
40996;DHT22;26723;57.478;12.066;2022-10-18T09:31:48;13.70;99.90
40996;DHT22;26723;57.478;12.066;2022-10-18T09:35:02;13.40;99.90
40996;DHT22;26723;57.478;12.066;2022-10-18T09:38:15;13.40;99.90
40996;DHT22;26723;57.478;12.066;2022-10-18T09:41:27;13.30;99.90
40996;DHT22;26723;57.478;12.066;2022-10-18T09:44:40;13.20;99.90
40996;DHT22;26723;57.478;12.066;2022-10-18T09:47:59;13.20;99.90
40996;DHT22;26723;57.478;12.066;2022-10-18T09:51:12;13.20;99.90
40996;DHT22;26723;57.478;12.066;2022-10-18T09:54:29;13.40;99.90
40996;DHT22;26723;57.478;12.066;2022-10-18T09:57:42;14.10;99.90
40996;DHT22;26723;57.478;12.066;2022-10-18T10:00:54;14.80;99.90
40996;DHT22;26723;57.478;12.066;2022-10-18T10:04:03;15.20;99.90
40996;DHT22;26723;57.478;12.066;2022-10-18T10:07:14;15.40;99.90
40996;DHT22;26723;57.478;12.066;2022-10-18T10:10:25;15.20;99.90
40996;DHT22;26723;57.478;12.066;2022-10-18T10:13:33;15.20;99.90
40996;DHT22;26723;57.478;12.066;2022-10-18T10:16:47;15.10;99.90
40996;DHT22;26723;57.478;12.066;2022-10-18T10:19:59;14.80;99.90
40996;DHT22;26723;57.478;12.066;2022-10-18T10:23:15;14.80;99.90
40996;DHT22;26723;57.478;12.066;2022-10-18T10:26:28;14.80;99.90
40996;DHT22;26723;57.478;12.066;2022-10-18T10:29:56;14.90;99.90
40996;DHT22;26723;57.478;12.066;2022-10-18T10:33:32;14.80;99.90
40996;DHT22;26723;57.478;12.066;2022-10-18T10:36:46;14.60;99.90
40996;DHT22;26723;57.478;12.066;2022-10-18T10:40:14;14.50;99.90
40996;DHT22;26723;57.478;12.066;2022-10-18T10:43:28;14.10;99.90
40996;DHT22;26723;57.478;12.066;2022-10-18T10:46:47;14.00;99.90
40996;DHT22;26723;57.478;12.066;2022-10-18T10:49:58;14.00;99.90
40996;DHT22;26723;57.478;12.066;2022-10-18T10:53:37;14.10;99.90
40996;DHT22;26723;57.478;12.066;2022-10-18T10:56:54;14.00;99.90
40996;DHT22;26723;57.478;12.066;2022-10-18T11:00:04;14.00;99.90
40996;DHT22;26723;57.478;12.066;2022-10-18T11:03:14;14.10;99.90
40996;DHT22;26723;57.478;12.066;2022-10-18T11:06:49;14.40;99.90
40996;DHT22;26723;57.478;12.066;2022-10-18T11:10:01;14.70;99.90
40996;DHT22;26723;57.478;12.066;2022-10-18T11:13:21;14.40;99.90
40996;DHT22;26723;57.478;12.066;2022-10-18T11:16:35;14.20;99.90
40996;DHT22;26723;57.478;12.066;2022-10-18T11:19:58;14.10;99.90
40996;DHT22;26723;57.478;12.066;2022-10-18T11:23:12;14.00;99.90
40996;DHT22;26723;57.478;12.066;2022-10-18T11:26:37;14.30;99.90
40996;DHT22;26723;57.478;12.066;2022-10-18T11:30:05;14.40;99.90
40996;DHT22;26723;57.478;12.066;2022-10-18T11:33:24;14.80;99.90
40996;DHT22;26723;57.478;12.066;2022-10-18T11:37:01;15.00;99.90
40996;DHT22;26723;57.478;12.066;2022-10-18T11:40:57;15.10;99.90
40996;DHT22;26723;57.478;12.066;2022-10-18T11:44:15;15.20;99.90
40996;DHT22;26723;57.478;12.066;2022-10-18T11:47:37;15.10;99.90
40996;DHT22;26723;57.478;12.066;2022-10-18T11:50:52;14.80;99.90
40996;DHT22;26723;57.478;12.066;2022-10-18T11:54:20;14.70;99.90
40996;DHT22;26723;57.478;12.066;2022-10-18T11:57:49;14.50;99.90
40996;DHT22;26723;57.478;12.066;2022-10-18T12:01:02;14.60;99.90
40996;DHT22;26723;57.478;12.066;2022-10-18T12:04:16;14.50;99.90
40996;DHT22;26723;57.478;12.066;2022-10-18T12:07:29;14.50;99.90
40996;DHT22;26723;57.478;12.066;2022-10-18T12:10:40;14.50;99.90
40996;DHT22;26723;57.478;12.066;2022-10-18T12:14:20;14.50;99.90
40996;DHT22;26723;57.478;12.066;2022-10-18T12:17:34;14.50;99.90
40996;DHT22;26723;57.478;12.066;2022-10-18T12:20:57;14.50;99.90
40996;DHT22;26723;57.478;12.066;2022-10-18T12:24:10;14.20;99.90
40996;DHT22;26723;57.478;12.066;2022-10-18T12:27:37;14.20;99.90
40996;DHT22;26723;57.478;12.066;2022-10-18T12:30:53;14.20;99.90
40996;DHT22;26723;57.478;12.066;2022-10-18T12:34:15;14.40;99.90
40996;DHT22;26723;57.478;12.066;2022-10-18T12:37:45;14.30;99.90
40996;DHT22;26723;57.478;12.066;2022-10-18T12:40:58;14.30;99.90
40996;DHT22;26723;57.478;12.066;2022-10-18T12:44:18;14.40;99.90
40996;DHT22;26723;57.478;12.066;2022-10-18T12:47:28;14.30;99.90
40996;DHT22;26723;57.478;12.066;2022-10-18T12:50:40;14.30;99.90
40996;DHT22;26723;57.478;12.066;2022-10-18T12:53:56;14.20;99.90
40996;DHT22;26723;57.478;12.066;2022-10-18T12:57:22;14.10;99.90
40996;DHT22;26723;57.478;12.066;2022-10-18T13:00:59;14.10;99.90
40996;DHT22;26723;57.478;12.066;2022-10-18T13:04:33;14.00;99.90
40996;DHT22;26723;57.478;12.066;2022-10-18T13:07:44;14.00;99.90
40996;DHT22;26723;57.478;12.066;2022-10-18T13:14:53;13.90;99.90
40996;DHT22;26723;57.478;12.066;2022-10-18T13:18:31;13.80;99.90
40996;DHT22;26723;57.478;12.066;2022-10-18T13:21:53;13.80;99.90
40996;DHT22;26723;57.478;12.066;2022-10-18T13:25:28;13.80;99.90
40996;DHT22;26723;57.478;12.066;2022-10-18T13:28:48;13.90;99.90
40996;DHT22;26723;57.478;12.066;2022-10-18T13:32:04;13.90;99.90
40996;DHT22;26723;57.478;12.066;2022-10-18T13:35:43;13.90;99.90
40996;DHT22;26723;57.478;12.066;2022-10-18T13:39:03;14.00;99.90
40996;DHT22;26723;57.478;12.066;2022-10-18T13:42:28;14.00;99.90
40996;DHT22;26723;57.478;12.066;2022-10-18T13:45:53;13.90;99.90
40996;DHT22;26723;57.478;12.066;2022-10-18T13:49:21;13.90;99.90
40996;DHT22;26723;57.478;12.066;2022-10-18T13:52:45;13.90;99.90
40996;DHT22;26723;57.478;12.066;2022-10-18T13:56:19;14.00;99.90
40996;DHT22;26723;57.478;12.066;2022-10-18T13:59:52;14.10;99.90
40996;DHT22;26723;57.478;12.066;2022-10-18T14:03:37;14.00;99.90
40996;DHT22;26723;57.478;12.066;2022-10-18T14:07:05;14.00;99.90
40996;DHT22;26723;57.478;12.066;2022-10-18T14:10:21;13.90;99.90
40996;DHT22;26723;57.478;12.066;2022-10-18T14:13:55;14.00;99.90
40996;DHT22;26723;57.478;12.066;2022-10-18T14:17:13;14.00;99.90
40996;DHT22;26723;57.478;12.066;2022-10-18T14:20:26;14.00;99.90
40996;DHT22;26723;57.478;12.066;2022-10-18T14:23:40;13.90;99.90
40996;DHT22;26723;57.478;12.066;2022-10-18T14:27:10;14.00;99.90
40996;DHT22;26723;57.478;12.066;2022-10-18T14:30:21;14.00;99.90
40996;DHT22;26723;57.478;12.066;2022-10-18T14:33:32;13.90;99.90
40996;DHT22;26723;57.478;12.066;2022-10-18T14:36:41;13.80;99.90
40996;DHT22;26723;57.478;12.066;2022-10-18T14:39:53;13.70;99.90
40996;DHT22;26723;57.478;12.066;2022-10-18T14:43:04;13.50;99.90
40996;DHT22;26723;57.478;12.066;2022-10-18T14:46:19;13.40;99.90
40996;DHT22;26723;57.478;12.066;2022-10-18T14:49:30;13.20;99.90
40996;DHT22;26723;57.478;12.066;2022-10-18T14:52:38;13.10;99.90
40996;DHT22;26723;57.478;12.066;2022-10-18T14:55:54;13.10;99.90
40996;DHT22;26723;57.478;12.066;2022-10-18T14:59:15;13.00;99.90
40996;DHT22;26723;57.478;12.066;2022-10-18T15:02:27;12.90;99.90
40996;DHT22;26723;57.478;12.066;2022-10-18T15:05:36;12.80;99.90
40996;DHT22;26723;57.478;12.066;2022-10-18T15:08:46;12.70;99.90
40996;DHT22;26723;57.478;12.066;2022-10-18T15:11:56;12.70;99.90
40996;DHT22;26723;57.478;12.066;2022-10-18T15:15:15;12.70;99.90
40996;DHT22;26723;57.478;12.066;2022-10-18T15:18:26;12.70;99.90
40996;DHT22;26723;57.478;12.066;2022-10-18T15:21:35;12.60;99.90
40996;DHT22;26723;57.478;12.066;2022-10-18T15:24:43;12.50;99.90
40996;DHT22;26723;57.478;12.066;2022-10-18T15:27:53;12.50;99.90
40996;DHT22;26723;57.478;12.066;2022-10-18T15:31:03;12.40;99.90
40996;DHT22;26723;57.478;12.066;2022-10-18T15:34:18;12.30;99.90
40996;DHT22;26723;57.478;12.066;2022-10-18T15:37:30;12.20;99.90
40996;DHT22;26723;57.478;12.066;2022-10-18T15:40:41;12.20;99.90
40996;DHT22;26723;57.478;12.066;2022-10-18T15:43:50;12.00;99.90
40996;DHT22;26723;57.478;12.066;2022-10-18T15:47:15;12.00;99.90
40996;DHT22;26723;57.478;12.066;2022-10-18T15:50:46;11.90;99.90
40996;DHT22;26723;57.478;12.066;2022-10-18T15:53:55;11.80;99.90
40996;DHT22;26723;57.478;12.066;2022-10-18T15:57:06;11.70;99.90
40996;DHT22;26723;57.478;12.066;2022-10-18T16:00:18;11.70;99.90
40996;DHT22;26723;57.478;12.066;2022-10-18T16:03:27;11.60;99.90
40996;DHT22;26723;57.478;12.066;2022-10-18T16:06:37;11.50;99.90
40996;DHT22;26723;57.478;12.066;2022-10-18T16:09:46;11.40;99.90
40996;DHT22;26723;57.478;12.066;2022-10-18T16:12:54;11.50;99.90
40996;DHT22;26723;57.478;12.066;2022-10-18T16:16:03;11.50;99.90
40996;DHT22;26723;57.478;12.066;2022-10-18T16:19:13;11.50;99.90
40996;DHT22;26723;57.478;12.066;2022-10-18T16:22:23;11.40;99.90
40996;DHT22;26723;57.478;12.066;2022-10-18T16:25:31;11.30;99.90
40996;DHT22;26723;57.478;12.066;2022-10-18T16:28:40;11.30;99.90
40996;DHT22;26723;57.478;12.066;2022-10-18T16:31:49;11.20;99.90
40996;DHT22;26723;57.478;12.066;2022-10-18T16:34:59;11.10;99.90
40996;DHT22;26723;57.478;12.066;2022-10-18T16:38:20;11.10;99.90
40996;DHT22;26723;57.478;12.066;2022-10-18T16:41:29;11.00;99.90
40996;DHT22;26723;57.478;12.066;2022-10-18T16:44:38;10.90;99.90
40996;DHT22;26723;57.478;12.066;2022-10-18T16:47:46;10.80;99.90
40996;DHT22;26723;57.478;12.066;2022-10-18T16:50:55;10.80;99.90
40996;DHT22;26723;57.478;12.066;2022-10-18T16:54:05;10.70;99.90
40996;DHT22;26723;57.478;12.066;2022-10-18T16:57:14;10.70;99.90
40996;DHT22;26723;57.478;12.066;2022-10-18T17:00:22;10.60;99.90
40996;DHT22;26723;57.478;12.066;2022-10-18T17:03:31;10.60;99.90
40996;DHT22;26723;57.478;12.066;2022-10-18T17:06:39;10.50;99.90
40996;DHT22;26723;57.478;12.066;2022-10-18T17:09:49;10.50;99.90
40996;DHT22;26723;57.478;12.066;2022-10-18T17:12:58;10.50;99.90
40996;DHT22;26723;57.478;12.066;2022-10-18T17:16:20;10.50;99.90
40996;DHT22;26723;57.478;12.066;2022-10-18T17:19:29;10.40;99.90
40996;DHT22;26723;57.478;12.066;2022-10-18T17:22:44;10.30;99.90
40996;DHT22;26723;57.478;12.066;2022-10-18T17:25:55;10.30;99.90
40996;DHT22;26723;57.478;12.066;2022-10-18T17:29:21;10.20;99.90
40996;DHT22;26723;57.478;12.066;2022-10-18T17:32:35;10.20;99.90
40996;DHT22;26723;57.478;12.066;2022-10-18T17:35:46;10.20;99.90
40996;DHT22;26723;57.478;12.066;2022-10-18T17:38:56;10.30;99.90
40996;DHT22;26723;57.478;12.066;2022-10-18T17:42:06;10.30;99.90
40996;DHT22;26723;57.478;12.066;2022-10-18T17:45:18;10.30;99.90
40996;DHT22;26723;57.478;12.066;2022-10-18T17:48:27;10.30;99.90
40996;DHT22;26723;57.478;12.066;2022-10-18T17:51:35;10.20;99.90
40996;DHT22;26723;57.478;12.066;2022-10-18T17:54:44;10.20;99.90
40996;DHT22;26723;57.478;12.066;2022-10-18T17:57:55;10.30;99.90
40996;DHT22;26723;57.478;12.066;2022-10-18T18:01:08;10.40;99.90
40996;DHT22;26723;57.478;12.066;2022-10-18T18:04:17;10.40;99.90
40996;DHT22;26723;57.478;12.066;2022-10-18T18:07:26;10.40;99.90
40996;DHT22;26723;57.478;12.066;2022-10-18T18:10:35;10.40;99.90
40996;DHT22;26723;57.478;12.066;2022-10-18T18:13:46;10.40;99.90
40996;DHT22;26723;57.478;12.066;2022-10-18T18:16:55;10.40;99.90
40996;DHT22;26723;57.478;12.066;2022-10-18T18:20:05;10.40;99.90
40996;DHT22;26723;57.478;12.066;2022-10-18T18:23:14;10.40;99.90
40996;DHT22;26723;57.478;12.066;2022-10-18T18:26:22;10.40;99.90
40996;DHT22;26723;57.478;12.066;2022-10-18T18:29:33;10.40;99.90
40996;DHT22;26723;57.478;12.066;2022-10-18T18:32:49;10.40;99.90
40996;DHT22;26723;57.478;12.066;2022-10-18T18:35:58;10.50;99.90
40996;DHT22;26723;57.478;12.066;2022-10-18T18:39:21;10.50;99.90
40996;DHT22;26723;57.478;12.066;2022-10-18T18:42:31;10.50;99.90
40996;DHT22;26723;57.478;12.066;2022-10-18T18:45:50;10.50;99.90
40996;DHT22;26723;57.478;12.066;2022-10-18T18:49:04;10.40;99.90
40996;DHT22;26723;57.478;12.066;2022-10-18T18:52:16;10.40;99.90
40996;DHT22;26723;57.478;12.066;2022-10-18T18:55:32;10.40;99.90
40996;DHT22;26723;57.478;12.066;2022-10-18T18:58:49;10.40;99.90
40996;DHT22;26723;57.478;12.066;2022-10-18T19:02:07;10.40;99.90
40996;DHT22;26723;57.478;12.066;2022-10-18T19:05:19;10.40;99.90
40996;DHT22;26723;57.478;12.066;2022-10-18T19:08:34;10.40;99.90
40996;DHT22;26723;57.478;12.066;2022-10-18T19:11:46;10.40;99.90
40996;DHT22;26723;57.478;12.066;2022-10-18T19:14:58;10.40;99.90
40996;DHT22;26723;57.478;12.066;2022-10-18T19:18:10;10.40;99.90
40996;DHT22;26723;57.478;12.066;2022-10-18T19:21:27;10.40;99.90
40996;DHT22;26723;57.478;12.066;2022-10-18T19:24:38;10.40;99.90
40996;DHT22;26723;57.478;12.066;2022-10-18T19:27:46;10.40;99.90
40996;DHT22;26723;57.478;12.066;2022-10-18T19:30:57;10.30;99.90
40996;DHT22;26723;57.478;12.066;2022-10-18T19:34:13;10.30;99.90
40996;DHT22;26723;57.478;12.066;2022-10-18T19:37:23;10.30;99.90
40996;DHT22;26723;57.478;12.066;2022-10-18T19:40:32;10.30;99.90
40996;DHT22;26723;57.478;12.066;2022-10-18T19:43:40;10.20;99.90
40996;DHT22;26723;57.478;12.066;2022-10-18T19:46:49;10.10;99.90
40996;DHT22;26723;57.478;12.066;2022-10-18T19:49:59;10.00;99.90
40996;DHT22;26723;57.478;12.066;2022-10-18T19:53:08;9.90;99.90
40996;DHT22;26723;57.478;12.066;2022-10-18T19:56:18;9.80;99.90
40996;DHT22;26723;57.478;12.066;2022-10-18T19:59:26;9.80;99.90
40996;DHT22;26723;57.478;12.066;2022-10-18T20:02:35;9.70;99.90
40996;DHT22;26723;57.478;12.066;2022-10-18T20:05:45;9.70;99.90
40996;DHT22;26723;57.478;12.066;2022-10-18T20:08:54;9.60;99.90
40996;DHT22;26723;57.478;12.066;2022-10-18T20:12:03;9.50;99.90
40996;DHT22;26723;57.478;12.066;2022-10-18T20:15:11;9.40;99.90